Time;durP1;ratioP1;P1;durP2;ratioP2;P2;SDS_P1;SDS_P2;PMS_P1;PMS_P2;Temp;Humidity;BMP_temperature;BMP_pressure;BME280_temperature;BME280_humidity;BME280_pressure;Samples;Min_cycle;Max_cycle;Signal;HPM_P1;HPM_P2
2022/09/18 00:01:25;;;;;;;2.57;1.33;;;12.10;93.30;;;12.44;61.72;98741.31;4983574;28;113118;-74
2022/09/18 00:03:58;;;;;;;4.23;1.50;;;12.10;93.30;;;12.45;61.86;98738.22;4982781;28;114438;-76
2022/09/18 00:06:29;;;;;;;3.83;1.30;;;12.10;93.30;;;12.45;61.69;98741.00;4978109;28;123894;-74
2022/09/18 00:08:58;;;;;;;1.83;1.20;;;12.30;93.40;;;12.44;61.92;98735.78;4968746;28;125419;-74
2022/09/18 00:11:29;;;;;;;4.50;1.40;;;12.10;93.30;;;12.43;61.78;98742.47;4962395;28;113371;-74
2022/09/18 00:13:56;;;;;;;6.30;1.60;;;12.10;93.30;;;12.40;62.22;98738.38;4987278;28;113849;-74
2022/09/18 00:16:24;;;;;;;4.43;1.47;;;12.10;93.40;;;12.38;62.21;98749.81;4978019;28;124026;-77
2022/09/18 00:18:51;;;;;;;1.93;1.20;;;12.00;93.40;;;12.36;62.47;98746.53;4982713;28;123257;-74
2022/09/18 00:21:22;;;;;;;7.73;1.87;;;12.00;93.40;;;12.36;62.23;98743.78;4981464;28;114257;-73
2022/09/18 00:23:55;;;;;;;4.50;1.30;;;12.00;93.40;;;12.37;62.07;98748.16;4983626;28;114039;-74
2022/09/18 00:26:24;;;;;;;3.60;1.40;;;12.00;93.40;;;12.36;62.39;98756.81;4975686;28;124159;-74
2022/09/18 00:28:53;;;;;;;6.43;1.50;;;12.00;93.50;;;12.34;62.07;98743.28;4988023;28;122894;-74
2022/09/18 00:31:25;;;;;;;5.43;1.50;;;12.00;93.40;;;12.33;62.42;98747.19;4967954;28;115511;-74
2022/09/18 00:33:52;;;;;;;4.27;1.20;;;12.00;93.50;;;12.33;61.97;98752.75;4980863;28;114908;-74
2022/09/18 00:36:20;;;;;;;3.07;1.30;;;12.00;93.50;;;12.33;62.33;98754.69;4974267;28;122912;-74
2022/09/18 00:38:47;;;;;;;6.33;1.70;;;12.10;93.60;;;12.31;62.54;98759.75;4983253;28;123744;-74
2022/09/18 00:41:23;;;;;;;5.43;1.33;;;12.00;93.50;;;12.27;62.23;98748.47;4973320;28;113472;-76
2022/09/18 00:43:52;;;;;;;8.70;1.77;;;12.00;93.50;;;12.26;62.66;98751.59;4980873;28;113985;-73
2022/09/18 00:46:32;;;;;;;2.90;1.57;;;12.10;93.60;;;12.25;62.49;98750.78;4983238;28;123840;-74
2022/09/18 00:49:09;;;;;;;5.73;1.53;;;11.90;93.50;;;12.24;62.71;98753.88;4991882;28;123473;-74
2022/09/18 00:51:37;;;;;;;4.93;1.40;;;11.90;93.90;;;12.23;62.56;98753.06;4991460;28;113075;-74
2022/09/18 00:54:19;;;;;;;6.07;1.87;;;11.90;93.50;;;12.25;62.62;98753.56;4989054;28;114017;-74
2022/09/18 00:56:49;;;;;;;3.10;1.13;;;11.90;93.50;;;12.25;62.72;98756.31;4974088;28;123997;-74
2022/09/18 00:59:23;;;;;;;5.70;1.70;;;11.90;93.50;;;12.26;62.47;98757.13;4991057;28;123113;-74
2022/09/18 01:01:50;;;;;;;3.17;1.40;;;12.20;93.70;;;12.25;62.24;98761.88;4991181;28;113166;-73
2022/09/18 01:04:16;;;;;;;6.30;1.87;;;11.90;93.50;;;12.28;62.53;98749.31;4995173;28;114017;-74
2022/09/18 01:07:12;;;;;;;4.50;1.73;;;11.90;93.50;;;12.32;62.41;98758.59;4987759;28;124005;-74
2022/09/18 01:10:14;;;;;;;3.60;1.40;;;12.00;93.60;;;12.32;62.24;98756.63;4980053;28;124354;-74
2022/09/18 01:13:10;;;;;;;6.10;1.30;;;12.00;93.50;;;12.32;61.98;98762.16;4979202;28;113158;-73
2022/09/18 01:16:04;;;;;;;3.40;1.20;;;12.00;93.50;;;12.32;62.18;98766.91;4974208;28;113270;-74
2022/09/18 01:18:42;;;;;;;3.43;1.63;;;12.00;93.40;;;12.33;61.84;98768.53;4994594;28;123465;-73
2022/09/18 01:21:32;;;;;;;5.40;1.50;;;12.00;93.40;;;12.32;61.95;98772.44;4961034;28;123049;-73
2022/09/18 01:24:45;;;;;;;8.30;1.70;;;11.90;93.30;;;12.31;61.58;98763.31;4982656;28;114996;-74
2022/09/18 01:27:37;;;;;;;6.40;1.60;;;12.00;93.20;;;12.27;61.37;98765.09;4986285;28;115026;-74
2022/09/18 01:30:08;;;;;;;11.93;1.60;;;11.90;92.90;;;12.28;60.66;98761.22;4970934;28;124054;-74
2022/09/18 01:32:56;;;;;;;1.70;1.30;;;11.90;92.70;;;12.27;60.72;98775.38;4981139;28;122493;-74
2022/09/18 01:35:38;;;;;;;5.70;1.53;;;11.90;92.60;;;12.28;59.97;98768.72;4985850;28;114930;-74
2022/09/18 01:38:32;;;;;;;7.20;1.40;;;11.90;92.30;;;12.29;59.96;98768.38;4983726;28;112834;-74
2022/09/18 01:41:21;;;;;;;1.83;0.97;;;12.10;92.30;;;12.31;59.96;98759.75;4971349;28;123646;-74
2022/09/18 01:43:53;;;;;;;1.40;1.17;;;11.90;92.00;;;12.29;59.39;98742.63;4983271;28;124009;-74
2022/09/18 01:46:21;;;;;;;3.27;1.23;;;12.00;92.00;;;12.32;59.63;98748.31;4974878;28;114412;-74
2022/09/18 01:48:56;;;;;;;2.20;1.30;;;12.00;92.00;;;12.35;59.74;98739.34;4977004;28;113800;-74
2022/09/18 01:51:29;;;;;;;4.43;1.20;;;12.00;92.00;;;12.38;59.48;98744.28;4989158;28;123042;-74
2022/09/18 01:54:02;;;;;;;7.30;1.47;;;12.00;92.00;;;12.38;59.59;98747.03;4987593;28;123847;-74
2022/09/18 01:56:45;;;;;;;4.00;1.40;;;12.00;92.00;;;12.37;60.05;98739.84;4989326;28;113671;-74
2022/09/18 01:59:27;;;;;;;3.07;1.50;;;12.00;92.10;;;12.36;59.83;98751.28;4983833;28;113903;-75
2022/09/18 02:01:56;;;;;;;6.50;1.40;;;12.00;92.10;;;12.35;59.89;98739.34;4983555;28;124078;-74
2022/09/18 02:04:31;;;;;;;4.13;1.17;;;12.00;92.20;;;12.38;60.08;98729.56;4971201;28;123596;-74
2022/09/18 02:07:43;;;;;;;2.90;1.27;;;12.70;92.60;;;12.36;59.99;98731.88;4984288;28;114942;-74
2022/09/18 02:10:10;;;;;;;6.60;1.37;;;12.00;92.30;;;12.36;60.31;98741.00;4969126;28;114052;-74
2022/09/18 02:12:39;;;;;;;3.70;1.83;;;12.10;92.40;;;12.40;60.31;98724.53;4980332;28;124046;-74
2022/09/18 02:15:12;;;;;;;2.63;1.30;;;12.00;92.40;;;12.43;60.56;98728.59;4984320;28;123497;-74
2022/09/18 02:17:44;;;;;;;1.60;1.20;;;12.10;92.50;;;12.41;60.62;98725.34;4986806;28;115328;-74
2022/09/18 02:20:30;;;;;;;4.63;1.43;;;12.20;92.60;;;12.43;60.87;98723.06;4982832;28;114968;-74
2022/09/18 02:23:02;;;;;;;1.73;1.20;;;12.00;92.60;;;12.43;60.89;98731.38;4983029;28;124049;-75
2022/09/18 02:25:59;;;;;;;2.10;1.33;;;12.00;92.70;;;12.38;60.94;98727.66;4972038;28;124285;-74
2022/09/18 02:28:27;;;;;;;4.57;1.20;;;12.00;92.70;;;12.36;61.02;98720.81;4984694;28;114115;-74
2022/09/18 02:30:54;;;;;;;3.13;1.10;;;12.00;92.80;;;12.35;60.94;98733.00;4984811;28;114568;-75
2022/09/18 02:33:30;;;;;;;2.00;1.37;;;12.00;92.80;;;12.33;61.29;98722.28;4974225;28;123858;-74
2022/09/18 02:36:06;;;;;;;5.00;1.20;;;12.00;92.90;;;12.33;61.49;98725.03;4974428;28;123791;-74
2022/09/18 02:39:13;;;;;;;3.03;1.20;;;12.00;93.00;;;12.32;61.79;98720.63;4987084;28;113851;-74
2022/09/18 02:41:59;;;;;;;3.63;1.57;;;12.00;93.10;;;12.33;61.46;98713.13;4990402;28;113771;-73
2022/09/18 02:44:37;;;;;;;4.90;1.30;;;12.00;93.20;;;12.32;61.98;98717.84;4982044;28;123154;-74
2022/09/18 02:47:40;;;;;;;4.37;1.37;;;12.00;93.20;;;12.34;62.05;98721.13;4984865;28;123902;-74
2022/09/18 02:50:15;;;;;;;5.23;1.37;;;12.00;93.30;;;12.37;62.08;98723.22;4980037;28;114524;-73
2022/09/18 02:52:56;;;;;;;3.77;1.77;;;12.00;93.40;;;12.37;62.13;98726.00;4978636;28;114041;-73
2022/09/18 02:55:30;;;;;;;3.27;1.20;;;12.00;93.40;;;12.35;62.41;98722.72;4987504;28;124830;-74
2022/09/18 02:58:04;;;;;;;2.20;1.30;;;13.40;94.10;;;12.38;62.36;98730.41;4976699;28;123736;-74
2022/09/18 03:00:32;;;;;;;2.40;1.30;;;12.00;93.50;;;12.39;62.50;98731.22;4985006;28;113542;-74
2022/09/18 03:02:58;;;;;;;1.63;0.90;;;12.00;93.60;;;12.40;62.44;98729.28;4988468;28;114129;-74
2022/09/18 03:05:26;;;;;;;1.70;1.13;;;12.00;93.60;;;12.42;62.77;98722.25;4971051;28;123090;-74
2022/09/18 03:07:52;;;;;;;1.80;1.20;;;12.00;93.70;;;12.42;62.42;98727.00;4987730;28;124380;-74
2022/09/18 03:10:19;;;;;;;2.23;1.10;;;12.10;93.80;;;12.40;62.79;98719.00;4986834;28;115285;-74
2022/09/18 03:12:45;;;;;;;1.87;0.97;;;12.00;93.80;;;12.42;63.08;98718.69;4985965;28;114459;-74
2022/09/18 03:15:12;;;;;;;2.80;1.40;;;12.00;93.80;;;12.42;63.15;98715.91;4989879;28;124040;-74
2022/09/18 03:17:39;;;;;;;4.13;1.20;;;12.00;93.90;;;12.44;62.72;98719.16;4984244;28;123894;-74
2022/09/18 03:20:06;;;;;;;2.70;1.30;;;13.00;94.40;;;12.41;62.99;98714.25;4973966;28;114025;-74
2022/09/18 03:22:32;;;;;;;3.17;1.50;;;12.00;94.00;;;12.40;63.14;98715.41;4970929;28;113894;-74
2022/09/18 03:24:59;;;;;;;4.33;1.30;;;12.00;94.00;;;12.37;63.18;98714.91;4968855;28;124388;-74
2022/09/18 03:27:25;;;;;;;1.93;1.13;;;12.00;94.10;;;12.36;63.56;98718.84;4969839;28;124603;-74
2022/09/18 03:29:52;;;;;;;4.00;1.13;;;12.00;94.10;;;12.35;63.13;98711.66;4975755;28;114257;-73
2022/09/18 03:32:18;;;;;;;3.03;1.13;;;12.00;94.10;;;12.35;63.34;98708.88;4968651;28;113901;-74
2022/09/18 03:34:45;;;;;;;1.40;1.00;;;12.00;94.20;;;12.35;63.34;98708.88;4981219;28;124021;-74
2022/09/18 03:37:11;;;;;;;1.63;1.00;;;12.00;94.30;;;12.35;63.74;98705.31;4981125;28;123841;-74
2022/09/18 03:39:38;;;;;;;1.70;1.10;;;12.50;94.50;;;12.33;63.84;98707.56;4975256;28;114376;-74
2022/09/18 03:42:05;;;;;;;5.10;1.37;;;12.00;94.30;;;12.32;63.53;98701.22;4981113;28;113971;-74
2022/09/18 03:44:31;;;;;;;3.30;1.50;;;12.00;94.30;;;12.33;63.70;98713.13;4986384;28;124988;-74
2022/09/18 03:46:58;;;;;;;2.40;1.37;;;12.00;94.30;;;12.32;63.65;98705.97;4986625;28;124081;-74
2022/09/18 03:49:25;;;;;;;6.00;1.10;;;12.10;94.40;;;12.32;63.66;98700.41;4980157;28;113974;-74
2022/09/18 03:51:51;;;;;;;2.03;1.07;;;12.80;94.70;;;12.32;63.66;98701.22;4987819;28;114115;-74
2022/09/18 03:54:18;;;;;;;2.20;1.20;;;12.00;94.40;;;12.35;63.58;98717.19;4985372;28;123969;-74
2022/09/18 03:56:44;;;;;;;4.80;1.00;;;12.00;94.50;;;12.40;63.71;98718.19;4986331;28;123904;-75
2022/09/18 03:59:11;;;;;;;1.37;1.17;;;12.20;94.60;;;12.43;63.62;98723.06;4986829;28;115090;-74
2022/09/18 04:01:37;;;;;;;1.77;1.23;;;12.00;94.50;;;12.42;63.68;98727.00;4987353;28;114919;-74
2022/09/18 04:04:04;;;;;;;2.40;1.10;;;12.90;94.90;;;12.40;63.51;98724.53;4985981;28;123011;-74
2022/09/18 04:06:30;;;;;;;3.80;1.10;;;12.00;94.50;;;12.38;64.02;98727.66;4985954;28;123882;-74
2022/09/18 04:08:57;;;;;;;4.10;1.23;;;12.00;94.50;;;12.39;63.95;98742.31;4982945;28;115045;-74
2022/09/18 04:11:23;;;;;;;1.90;1.00;;;12.00;94.60;;;12.34;63.89;98731.38;4981887;28;114107;-74
2022/09/18 04:13:50;;;;;;;3.00;1.10;;;12.00;94.60;;;12.31;63.93;98741.16;4990020;28;124663;-74
2022/09/18 04:16:16;;;;;;;2.07;1.37;;;11.90;94.60;;;12.27;64.28;98737.41;4980954;28;123638;-74
2022/09/18 04:18:43;;;;;;;3.00;1.10;;;11.90;94.70;;;12.25;64.46;98739.69;4985755;28;114413;-74
2022/09/18 04:21:09;;;;;;;2.00;1.07;;;11.90;94.90;;;12.21;64.95;98733.16;4981826;28;114720;-74
2022/09/18 04:23:36;;;;;;;1.87;1.00;;;11.90;94.90;;;12.18;65.06;98731.06;4987767;28;124110;-74
2022/09/18 04:26:07;;;;;;;2.27;1.30;;;11.90;95.00;;;12.16;64.87;98730.56;4991296;28;123746;-74
2022/09/18 04:28:37;;;;;;;2.43;1.07;;;11.80;95.00;;;12.13;65.23;98734.78;4991281;28;114362;-74
2022/09/18 04:31:05;;;;;;;3.27;1.33;;;11.80;95.10;;;12.12;65.21;98735.13;4987133;28;114102;-74
2022/09/18 04:33:32;;;;;;;2.20;1.10;;;11.80;95.20;;;12.09;65.36;98742.13;4985178;28;124673;-74
2022/09/18 04:35:58;;;;;;;2.80;1.30;;;11.80;95.30;;;12.09;65.37;98730.22;4988490;28;123725;-74
2022/09/18 04:38:28;;;;;;;4.00;1.60;;;11.80;95.30;;;12.09;65.56;98735.75;4978747;28;114363;-75
2022/09/18 04:40:59;;;;;;;2.70;1.17;;;11.70;95.30;;;12.08;65.38;98732.16;4974745;28;113147;-74
2022/09/18 04:43:27;;;;;;;6.00;1.30;;;11.80;95.40;;;12.09;65.59;98738.53;4986977;28;123894;-73
2022/09/18 04:45:54;;;;;;;3.00;1.00;;;11.70;95.40;;;12.07;65.77;98726.97;4974380;28;122562;-74
2022/09/18 04:48:21;;;;;;;5.77;1.60;;;12.50;95.80;;;12.07;65.69;98732.50;4986161;28;115353;-74
2022/09/18 04:50:48;;;;;;;1.20;1.10;;;11.70;95.40;;;12.09;65.49;98730.22;4993389;28;114975;-75
2022/09/18 04:53:15;;;;;;;1.93;1.10;;;11.70;95.40;;;12.12;65.42;98730.41;4986815;28;124427;-74
2022/09/18 04:55:43;;;;;;;1.60;1.10;;;11.80;95.40;;;12.13;65.54;98737.56;4981064;28;123643;-74
2022/09/18 04:58:11;;;;;;;2.70;1.27;;;11.80;95.50;;;12.13;65.67;98734.78;4974043;28;112776;-74
2022/09/18 05:00:38;;;;;;;1.70;1.10;;;11.80;95.50;;;12.13;65.41;98732.00;4989491;28;114337;-74
2022/09/18 05:03:06;;;;;;;2.13;1.63;;;11.80;95.40;;;12.15;65.65;98735.28;4982547;28;124090;-74
2022/09/18 05:05:33;;;;;;;1.67;0.90;;;11.80;95.50;;;12.19;65.37;98738.22;4982513;28;124000;-74
2022/09/18 05:08:01;;;;;;;2.07;1.27;;;11.80;95.40;;;12.21;65.19;98733.16;4990557;28;114286;-74
2022/09/18 05:10:28;;;;;;;3.20;1.20;;;11.80;95.40;;;12.21;65.50;98741.47;4990308;28;112920;-75
2022/09/18 05:12:55;;;;;;;2.53;1.23;;;11.90;95.40;;;12.23;65.32;98736.44;4976779;28;123615;-73
2022/09/18 05:15:21;;;;;;;1.30;1.00;;;11.90;95.40;;;12.25;65.23;98739.69;4981066;28;123917;-74
2022/09/18 05:17:48;;;;;;;1.50;1.13;;;11.90;95.40;;;12.27;64.91;98742.94;4989075;28;113198;-74
2022/09/18 05:20:15;;;;;;;2.23;1.30;;;11.90;95.40;;;12.27;64.79;98745.72;4964805;28;113019;-74
2022/09/18 05:22:45;;;;;;;1.97;1.37;;;11.90;95.30;;;12.31;65.15;98743.94;4975020;28;123991;-74
2022/09/18 05:25:12;;;;;;;1.10;1.00;;;12.10;95.40;;;12.31;64.95;98755.00;4984693;28;123819;-74
2022/09/18 05:27:38;;;;;;;2.13;1.43;;;12.00;95.30;;;12.35;65.05;98747.66;4989228;28;114194;-74
2022/09/18 05:30:06;;;;;;;4.57;1.30;;;12.20;95.50;;;12.36;65.13;98759.59;4979371;28;114039;-74
2022/09/18 05:32:32;;;;;;;2.13;1.10;;;11.90;95.30;;;12.37;64.85;98761.22;4978828;28;124728;-74
2022/09/18 05:34:59;;;;;;;1.30;1.10;;;12.00;95.30;;;12.38;65.04;98754.50;4972766;28;123595;-74
2022/09/18 05:37:26;;;;;;;3.83;1.10;;;12.00;95.30;;;12.38;65.07;98755.34;4984963;28;115275;-74
2022/09/18 05:39:52;;;;;;;3.80;1.23;;;12.40;95.50;;;12.38;64.77;98754.50;4984456;28;115378;-74
2022/09/18 05:42:19;;;;;;;1.47;1.10;;;12.30;95.50;;;12.36;64.79;98760.41;4984090;28;124250;-74
2022/09/18 05:44:45;;;;;;;2.37;1.27;;;13.00;95.80;;;12.36;65.04;98757.63;4982265;28;122902;-75
2022/09/18 05:47:12;;;;;;;2.80;1.23;;;11.90;95.40;;;12.35;65.14;98771.78;4974145;28;114185;-74
2022/09/18 05:49:38;;;;;;;5.40;1.50;;;12.10;95.50;;;12.33;65.29;98766.59;4974478;28;113380;-74
2022/09/18 05:52:05;;;;;;;1.93;1.13;;;11.90;95.40;;;12.31;65.18;98765.28;4985837;28;124095;-74
2022/09/18 05:54:35;;;;;;;1.87;1.50;;;11.90;95.50;;;12.32;65.54;98767.72;4978385;28;122939;-74
2022/09/18 05:57:01;;;;;;;1.90;1.10;;;12.00;95.60;;;12.34;65.64;98770.97;4982717;28;114317;-74
2022/09/18 05:59:28;;;;;;;3.13;1.40;;;12.00;95.60;;;12.38;65.55;98769.22;4972533;28;114148;-74
2022/09/18 06:01:54;;;;;;;1.47;1.00;;;12.00;95.70;;;12.41;65.55;98775.22;4978860;28;124030;-74
2022/09/18 06:04:21;;;;;;;1.77;1.00;;;12.30;95.80;;;12.45;65.50;98776.22;4983933;28;123544;-74
2022/09/18 06:06:47;;;;;;;1.93;1.30;;;12.00;95.60;;;12.44;65.26;98775.41;4967679;28;114041;-74
2022/09/18 06:09:14;;;;;;;1.93;1.13;;;12.10;95.70;;;12.44;65.41;98780.09;4976193;28;114018;-74
2022/09/18 06:11:40;;;;;;;4.13;1.40;;;12.10;95.70;;;12.46;65.54;98786.16;4979803;28;124675;-74
2022/09/18 06:14:07;;;;;;;2.30;1.30;;;12.10;95.70;;;12.48;65.46;98775.56;4971069;28;123658;-74
2022/09/18 06:16:34;;;;;;;4.00;1.37;;;12.10;95.70;;;12.50;65.64;98773.28;4977832;28;114409;-76
2022/09/18 06:19:01;;;;;;;3.40;1.20;;;12.20;95.80;;;12.52;65.34;98769.03;4975571;28;114058;-74
2022/09/18 06:21:27;;;;;;;1.90;1.20;;;12.10;95.80;;;12.55;65.71;98773.13;4983231;28;124110;-74
2022/09/18 06:23:54;;;;;;;2.27;1.10;;;12.10;95.80;;;12.55;65.76;98781.44;4979299;28;123774;-74
2022/09/18 06:26:20;;;;;;;2.13;1.30;;;12.10;95.80;;;12.51;65.70;98784.03;4966793;28;115260;-75
2022/09/18 06:28:50;;;;;;;1.97;1.10;;;12.10;95.80;;;12.49;65.53;98789.09;4982330;28;114629;-74
2022/09/18 06:31:16;;;;;;;4.03;1.23;;;12.20;95.90;;;12.48;65.63;98787.44;4975211;28;124116;-75
2022/09/18 06:33:43;;;;;;;2.93;1.50;;;12.10;95.90;;;12.48;65.82;98784.69;4966534;28;123649;-74
2022/09/18 06:36:12;;;;;;;3.00;1.40;;;12.10;95.90;;;12.46;66.04;98788.91;4976141;28;114315;-74
2022/09/18 06:38:39;;;;;;;4.00;1.30;;;12.80;96.30;;;12.45;66.17;98787.28;4970701;28;113926;-75
2022/09/18 06:41:06;;;;;;;3.23;1.20;;;12.20;96.10;;;12.48;65.98;98792.19;4972382;28;124069;-74
2022/09/18 06:43:32;;;;;;;4.60;1.60;;;12.10;96.10;;;12.51;66.16;98791.53;4977571;28;124421;-74
2022/09/18 06:45:59;;;;;;;2.13;1.37;;;12.20;96.20;;;12.54;66.00;98790.88;4982897;28;114310;-74
2022/09/18 06:48:28;;;;;;;2.33;1.00;;;12.20;96.10;;;12.55;65.91;98785.00;4974812;28;113879;-75
2022/09/18 06:50:57;;;;;;;3.87;1.30;;;12.10;96.10;;;12.55;66.16;98786.97;4978583;28;124094;-74
2022/09/18 06:53:25;;;;;;;3.67;1.60;;;12.10;96.20;;;12.54;66.20;98790.88;4975685;28;123814;-75
2022/09/18 06:55:51;;;;;;;4.10;1.20;;;12.10;96.20;;;12.50;66.24;98785.19;4975060;28;114336;-74
2022/09/18 06:58:19;;;;;;;2.10;1.20;;;12.10;96.20;;;12.47;66.46;98776.72;4976905;28;114301;-74
2022/09/18 07:00:46;;;;;;;6.70;1.30;;;12.10;96.30;;;12.48;66.31;98775.56;4987492;28;124190;-75
2022/09/18 07:03:12;;;;;;;2.13;1.27;;;12.10;96.30;;;12.48;66.27;98783.88;4980057;28;123734;-75
2022/09/18 07:05:41;;;;;;;2.87;1.17;;;12.10;96.40;;;12.47;66.46;98777.53;4984471;28;114216;-75
2022/09/18 07:08:09;;;;;;;3.87;1.53;;;12.10;96.40;;;12.46;66.60;98791.69;4986275;28;114714;-74
2022/09/18 07:10:35;;;;;;;3.00;1.40;;;12.00;96.50;;;12.47;66.67;98785.84;4987103;28;124101;-74
2022/09/18 07:13:02;;;;;;;4.00;1.43;;;12.10;96.60;;;12.48;67.27;98792.19;4974077;28;122936;-75
2022/09/18 07:15:30;;;;;;;3.53;1.80;;;12.10;96.70;;;12.51;67.11;98783.22;4968225;28;115049;-74
2022/09/18 07:17:58;;;;;;;5.10;1.50;;;12.10;96.70;;;12.55;67.28;98786.97;4983752;28;115014;-74
2022/09/18 07:20:25;;;;;;;2.03;1.27;;;12.10;96.80;;;12.57;67.26;98771.66;4979428;28;124816;-74
2022/09/18 07:23:00;;;;;;;1.50;1.40;;;12.20;97.10;;;12.60;67.19;98784.84;4953008;28;123817;-74
2022/09/18 07:25:30;;;;;;;5.57;1.40;;;12.20;96.80;;;12.60;67.06;98776.53;4978133;28;114963;-73
2022/09/18 07:28:08;;;;;;;1.77;1.30;;;12.20;96.80;;;12.66;67.09;98776.38;4984543;28;114098;-74
2022/09/18 07:30:37;;;;;;;3.17;1.57;;;12.20;96.80;;;12.67;66.90;98778.81;4985765;28;123950;-74
2022/09/18 07:33:05;;;;;;;3.33;1.20;;;12.30;96.80;;;12.70;66.83;98780.13;4953817;28;123714;-74
2022/09/18 07:35:32;;;;;;;3.20;1.23;;;12.30;96.80;;;12.70;66.69;98786.47;4977760;28;114775;-75
2022/09/18 07:38:00;;;;;;;7.43;1.50;;;12.60;97.10;;;12.75;66.86;98786.31;4970448;28;113984;-74
2022/09/18 07:40:27;;;;;;;2.30;1.10;;;12.30;96.80;;;12.78;66.79;98785.66;4981609;28;123875;-79
2022/09/18 07:43:06;;;;;;;5.40;1.60;;;12.30;96.70;;;12.82;66.49;98785.81;4975128;28;123854;-75
2022/09/18 07:45:34;;;;;;;2.10;1.40;;;12.40;96.70;;;12.83;66.40;98796.56;4983288;28;114321;-74
2022/09/18 07:48:05;;;;;;;1.80;1.37;;;13.70;97.20;;;12.85;66.37;98792.66;4976648;28;114080;-74
2022/09/18 07:50:32;;;;;;;1.50;1.20;;;12.40;96.60;;;12.88;65.92;98803.91;4973710;28;123369;-74
2022/09/18 07:53:01;;;;;;;2.50;1.33;;;13.30;97.00;;;12.90;65.94;98809.16;4969653;28;123842;-76
2022/09/18 07:55:30;;;;;;;2.30;1.40;;;12.40;96.40;;;12.91;65.71;98805.22;4980941;28;114763;-75
2022/09/18 07:58:00;;;;;;;4.20;1.30;;;12.50;96.30;;;12.91;65.57;98805.22;4971481;28;114240;-76
2022/09/18 08:00:35;;;;;;;2.70;1.50;;;13.60;96.70;;;12.90;65.44;98809.16;4985771;28;124056;-75
2022/09/18 08:03:10;;;;;;;2.47;1.23;;;12.50;96.10;;;12.87;65.01;98795.91;4985220;28;123610;-77
2022/09/18 08:05:41;;;;;;;2.70;1.43;;;12.40;95.80;;;12.88;64.86;98797.56;4973570;28;114547;-78
2022/09/18 08:08:12;;;;;;;4.93;1.53;;;12.40;95.80;;;12.91;65.33;98811.56;4983020;28;115554;-77
2022/09/18 08:10:42;;;;;;;3.10;1.40;;;12.50;95.90;;;12.93;64.74;98811.25;4992703;28;124962;-75
2022/09/18 08:13:09;;;;;;;2.53;1.30;;;12.50;95.70;;;12.93;64.55;98820.38;4978479;28;125129;-75
2022/09/18 08:15:38;;;;;;;1.90;1.40;;;12.50;95.60;;;12.91;64.30;98811.56;4988632;28;114283;-76
2022/09/18 08:18:06;;;;;;;4.40;1.57;;;12.50;95.50;;;12.89;64.20;98818.59;4984503;28;114070;-75
2022/09/18 08:20:34;;;;;;;3.23;1.67;;;12.50;95.40;;;12.89;64.34;98829.69;4966948;28;123317;-75
2022/09/18 08:23:07;;;;;;;4.80;1.50;;;12.50;95.40;;;12.87;64.12;98820.88;4968897;28;123971;-75
2022/09/18 08:25:34;;;;;;;2.00;1.67;;;12.50;95.40;;;12.87;64.41;98826.41;4979391;28;115714;-75
2022/09/18 08:28:03;;;;;;;2.13;1.20;;;12.50;95.40;;;12.87;64.40;98841.13;4984246;28;114531;-77
2022/09/18 08:30:30;;;;;;;5.53;1.40;;;12.50;95.40;;;12.89;64.18;98833.25;4983674;28;124063;-76
2022/09/18 08:33:02;;;;;;;1.60;1.20;;;12.50;95.30;;;12.92;64.35;98817.94;4969418;28;124255;-75
2022/09/18 08:35:30;;;;;;;3.30;1.43;;;12.80;95.50;;;12.95;64.19;98825.59;4980476;28;114429;-76
2022/09/18 08:37:58;;;;;;;1.37;1.17;;;13.30;95.60;;;12.98;63.69;98839.63;4981322;28;113875;-75
2022/09/18 08:40:41;;;;;;;3.80;1.60;;;12.60;95.20;;;13.00;63.80;98825.44;4983571;28;124116;-75
2022/09/18 08:43:28;;;;;;;3.57;1.70;;;12.60;95.10;;;13.01;63.70;98838.16;4984111;28;124331;-75
2022/09/18 08:46:09;;;;;;;2.93;1.37;;;12.60;95.10;;;13.01;63.23;98833.44;4984962;28;114554;-75
2022/09/18 08:49:15;;;;;;;2.00;1.20;;;12.60;94.80;;;13.01;63.37;98827.06;4976052;28;114697;-75
2022/09/18 08:52:21;;;;;;;5.90;1.73;;;12.60;94.80;;;13.06;63.57;98824.13;4971642;28;123978;-74
2022/09/18 08:55:11;;;;;;;6.80;1.53;;;12.60;94.90;;;13.12;63.21;98828.34;4968816;28;124249;-75
2022/09/18 08:57:43;;;;;;;2.30;1.33;;;12.70;94.80;;;13.18;63.57;98827.03;4970168;28;115207;-75
2022/09/18 09:00:41;;;;;;;2.10;1.27;;;12.80;94.90;;;13.25;63.12;98827.34;4976993;28;115837;-75
2022/09/18 09:03:37;;;;;;;1.93;1.30;;;12.80;94.90;;;13.30;62.83;98820.88;4987170;28;123516;-75
2022/09/18 09:06:18;;;;;;;2.50;1.23;;;12.90;94.70;;;13.31;62.51;98821.66;4978253;28;124072;-75
2022/09/18 09:08:56;;;;;;;2.50;1.60;;;12.90;94.60;;;13.31;62.76;98830.81;4968080;28;114018;-76
2022/09/18 09:11:32;;;;;;;5.47;1.97;;;12.90;94.60;;;13.32;62.83;98831.63;4974571;28;113843;-75
2022/09/18 09:14:14;;;;;;;2.67;1.50;;;12.90;94.50;;;13.34;62.56;98823.78;4995253;28;123108;-75
2022/09/18 09:16:55;;;;;;;2.50;1.60;;;12.90;94.50;;;13.33;62.40;98827.72;4968676;28;123909;-75
2022/09/18 09:19:40;;;;;;;2.50;1.37;;;13.00;94.40;;;13.32;62.34;98826.88;4966865;28;113268;-76
2022/09/18 09:22:44;;;;;;;4.50;1.30;;;12.90;94.30;;;13.33;62.25;98827.72;4970590;28;113285;-75
2022/09/18 09:25:24;;;;;;;5.40;1.40;;;12.90;94.20;;;13.32;62.20;98840.75;4967552;28;123865;-76
2022/09/18 09:28:08;;;;;;;3.30;1.70;;;12.90;94.20;;;13.34;62.36;98829.34;4973550;28;123713;-75
2022/09/18 09:30:35;;;;;;;4.03;1.80;;;13.00;94.20;;;13.36;62.36;98833.41;4971683;28;114395;-76
2022/09/18 09:33:41;;;;;;;2.00;1.50;;;13.00;94.20;;;13.42;62.16;98831.25;4978103;28;113915;-75
2022/09/18 09:36:12;;;;;;;4.37;1.47;;;13.00;94.30;;;13.45;62.03;98841.69;4984694;28;123601;-79
2022/09/18 09:39:05;;;;;;;3.90;1.73;;;13.10;94.30;;;13.49;62.00;98820.47;4970725;28;123672;-81
2022/09/18 09:41:41;;;;;;;4.97;1.50;;;13.10;94.20;;;13.50;62.00;98827.66;4961376;28;113814;-76
2022/09/18 09:44:35;;;;;;;3.10;1.50;;;13.10;94.10;;;13.53;61.81;98820.63;4986378;28;114091;-76
2022/09/18 09:47:05;;;;;;;3.93;1.77;;;13.10;94.10;;;13.58;61.89;98817.66;4978505;28;124655;-76
2022/09/18 09:49:45;;;;;;;6.00;1.40;;;13.20;94.10;;;13.65;61.79;98810.47;4976120;28;123778;-79
2022/09/18 09:52:21;;;;;;;6.30;1.70;;;13.20;94.10;;;13.70;61.25;98810.28;4979953;28;115637;-78
2022/09/18 09:55:13;;;;;;;3.93;1.57;;;13.30;93.90;;;13.74;61.18;98809.59;4984162;28;114671;-76
2022/09/18 09:57:47;;;;;;;2.80;1.30;;;13.30;93.80;;;13.80;61.35;98808.25;4983917;28;123861;-76
2022/09/18 10:00:18;;;;;;;2.70;1.40;;;13.40;93.90;;;13.85;61.00;98795.00;4983357;28;122750;-76
2022/09/18 10:03:06;;;;;;;1.70;1.20;;;13.40;93.80;;;13.91;60.91;98804.78;4967953;28;113379;-77
2022/09/18 10:06:49;;;;;;;2.47;1.10;;;13.50;93.70;;;13.94;60.64;98800.50;4983817;28;114103;-77
2022/09/18 10:09:45;;;;;;;2.60;1.00;;;13.50;93.40;;;14.02;60.36;98799.66;4916121;28;124259;-76
2022/09/18 10:12:39;;;;;;;2.53;1.40;;;13.60;93.50;;;14.12;59.91;98799.28;4944566;28;124239;-76
2022/09/18 10:15:46;;;;;;;5.20;1.80;;;13.70;93.30;;;14.20;59.89;98802.34;4960352;28;114245;-75
2022/09/18 10:18:21;;;;;;;2.23;1.43;;;13.80;93.20;;;14.28;59.27;98796.72;4960001;28;114082;-77
2022/09/18 10:21:11;;;;;;;2.47;1.23;;;13.80;92.90;;;14.36;59.18;98798.63;4954494;28;124468;-76
2022/09/18 10:24:21;;;;;;;7.60;1.63;;;13.90;93.00;;;14.44;59.02;98796.13;4948555;28;123467;-78
2022/09/18 10:27:10;;;;;;;5.70;1.70;;;14.00;92.90;;;14.50;58.68;98795.56;4942680;28;114126;-77
2022/09/18 10:29:37;;;;;;;9.33;1.50;;;14.10;92.60;;;14.58;58.18;98793.91;4936908;28;113069;-77
2022/09/18 10:32:05;;;;;;;4.17;1.30;;;14.10;92.30;;;14.65;57.51;98787.84;4949933;28;123769;-77
2022/09/18 10:34:39;;;;;;;6.20;1.27;;;14.20;92.00;;;14.74;56.88;98796.91;4960026;28;124315;-77
2022/09/18 10:37:28;;;;;;;3.23;1.40;;;14.30;91.80;;;14.83;56.25;98806.00;4948149;28;114268;-77
2022/09/18 10:40:00;;;;;;;2.03;1.03;;;14.30;91.30;;;14.89;54.88;98782.38;4975463;28;113783;-77